createdAt,value
2023-04-02T00:01:01.716Z,100.00
2023-04-02T00:03:44.674Z,100.00
2023-04-02T00:06:32.679Z,100.00
2023-04-02T00:09:17.294Z,100.00
2023-04-02T00:11:49.176Z,100.00
2023-04-02T00:14:36.280Z,100.00
2023-04-02T00:17:06.079Z,100.00
2023-04-02T00:20:06.815Z,100.00
2023-04-02T00:22:34.467Z,100.00
2023-04-02T00:25:13.674Z,100.00
2023-04-02T00:27:42.313Z,100.00
2023-04-02T00:30:13.269Z,100.00
2023-04-02T00:32:42.177Z,100.00
2023-04-02T00:35:38.988Z,100.00
2023-04-02T00:38:07.185Z,100.00
2023-04-02T00:40:35.226Z,100.00
2023-04-02T00:43:06.900Z,100.00
2023-04-02T00:45:38.365Z,100.00
2023-04-02T00:48:56.663Z,100.00
2023-04-02T00:51:32.339Z,100.00
2023-04-02T00:54:06.090Z,100.00
2023-04-02T00:56:46.264Z,100.00
2023-04-02T00:59:29.193Z,100.00
2023-04-02T01:02:19.193Z,100.00
2023-04-02T01:04:55.818Z,100.00
2023-04-02T01:08:03.717Z,100.00
2023-04-02T01:11:06.000Z,100.00
2023-04-02T01:13:45.981Z,100.00
2023-04-02T01:16:30.255Z,100.00
2023-04-02T01:19:58.389Z,100.00
2023-04-02T01:22:54.988Z,100.00
2023-04-02T01:25:34.964Z,100.00
2023-04-02T01:28:19.521Z,100.00
2023-04-02T01:30:54.386Z,100.00
2023-04-02T01:33:29.222Z,100.00
2023-04-02T01:36:11.041Z,100.00
2023-04-02T01:38:58.577Z,100.00
2023-04-02T01:41:53.545Z,100.00
2023-04-02T01:44:34.698Z,100.00
2023-04-02T01:47:08.373Z,100.00
2023-04-02T01:49:36.224Z,100.00
2023-04-02T01:52:04.866Z,100.00
2023-04-02T01:54:37.858Z,100.00
2023-04-02T01:57:05.962Z,100.00
2023-04-02T01:59:33.992Z,100.00
2023-04-02T02:02:09.405Z,100.00
2023-04-02T02:04:40.933Z,100.00
2023-04-02T02:07:20.565Z,100.00
2023-04-02T02:09:52.921Z,100.00
2023-04-02T02:12:21.425Z,100.00
2023-04-02T02:14:52.133Z,100.00
2023-04-02T02:17:34.544Z,100.00
2023-04-02T02:20:11.029Z,100.00
2023-04-02T02:22:45.635Z,100.00
2023-04-02T02:25:22.566Z,100.00
2023-04-02T02:27:59.278Z,100.00
2023-04-02T02:30:36.157Z,100.00
2023-04-02T02:33:14.357Z,100.00
2023-04-02T02:35:57.998Z,100.00
2023-04-02T02:39:05.201Z,100.00
2023-04-02T02:42:14.095Z,100.00
2023-04-02T02:44:48.547Z,100.00
2023-04-02T02:47:26.633Z,100.00
2023-04-02T02:50:00.354Z,100.00
2023-04-02T02:52:35.067Z,100.00
2023-04-02T02:55:21.909Z,100.00
2023-04-02T02:58:32.027Z,100.00
2023-04-02T03:01:14.345Z,100.00
2023-04-02T03:03:47.519Z,100.00
2023-04-02T03:06:20.694Z,100.00
2023-04-02T03:09:12.913Z,100.00
2023-04-02T03:11:52.171Z,100.00
2023-04-02T03:14:38.337Z,100.00
2023-04-02T03:17:19.855Z,100.00
2023-04-02T03:20:01.776Z,100.00
2023-04-02T03:22:41.624Z,100.00
2023-04-02T03:25:37.296Z,100.00
2023-04-02T03:28:13.142Z,100.00
2023-04-02T03:30:57.018Z,100.00
2023-04-02T03:33:35.898Z,100.00
2023-04-02T03:36:23.532Z,100.00
2023-04-02T03:39:26.184Z,100.00
2023-04-02T03:42:01.446Z,100.00
2023-04-02T03:44:38.249Z,100.00
2023-04-02T03:47:18.716Z,100.00
2023-04-02T03:49:57.209Z,100.00
2023-04-02T03:52:28.497Z,100.00
2023-04-02T03:55:02.631Z,100.00
2023-04-02T03:57:42.787Z,100.00
2023-04-02T04:00:28.724Z,100.00
2023-04-02T04:03:10.312Z,100.00
2023-04-02T04:05:52.197Z,100.00
2023-04-02T04:08:34.707Z,100.00
2023-04-02T04:11:10.711Z,100.00
2023-04-02T04:14:20.149Z,100.00
2023-04-02T04:17:51.445Z,100.00
2023-04-02T04:20:56.483Z,100.00
2023-04-02T04:23:51.338Z,100.00
2023-04-02T04:26:55.357Z,100.00
2023-04-02T04:30:05.836Z,100.00
2023-04-02T04:33:03.992Z,100.00
2023-04-02T04:36:03.819Z,100.00
2023-04-02T04:39:00.565Z,100.00
2023-04-02T04:41:54.298Z,100.00
2023-04-02T04:45:00.491Z,100.00
2023-04-02T04:47:57.863Z,100.00
2023-04-02T04:51:03.861Z,100.00
2023-04-02T04:53:55.222Z,100.00
2023-04-02T04:56:57.431Z,100.00
2023-04-02T04:59:58.696Z,100.00
2023-04-02T05:03:06.074Z,100.00
2023-04-02T05:05:54.297Z,100.00
2023-04-02T05:08:49.066Z,100.00
2023-04-02T05:11:45.628Z,100.00
2023-04-02T05:14:32.297Z,100.00
2023-04-02T05:17:16.612Z,100.00
2023-04-02T05:20:07.349Z,100.00
2023-04-02T05:23:02.283Z,100.00
2023-04-02T05:26:19.516Z,100.00
2023-04-02T05:29:14.759Z,100.00
2023-04-02T05:32:06.749Z,100.00
2023-04-02T05:34:50.134Z,100.00
2023-04-02T05:37:31.069Z,100.00
2023-04-02T05:40:24.219Z,100.00
2023-04-02T05:43:10.452Z,100.00
2023-04-02T05:45:57.606Z,100.00
2023-04-02T05:48:43.478Z,100.00
2023-04-02T05:51:36.812Z,100.00
2023-04-02T05:54:55.046Z,100.00
2023-04-02T05:57:51.262Z,100.00
2023-04-02T06:00:40.007Z,100.00
2023-04-02T06:03:46.313Z,100.00
2023-04-02T06:06:39.516Z,100.00
2023-04-02T06:09:37.869Z,100.00
2023-04-02T06:12:43.453Z,100.00
2023-04-02T06:15:17.149Z,100.00
2023-04-02T06:18:19.460Z,100.00
2023-04-02T06:20:51.823Z,100.00
2023-04-02T06:23:41.486Z,100.00
2023-04-02T06:26:35.218Z,100.00
2023-04-02T06:29:38.408Z,100.00
2023-04-02T06:32:16.912Z,100.00
2023-04-02T06:34:55.952Z,100.00
2023-04-02T06:37:39.442Z,100.00
2023-04-02T06:40:48.628Z,100.00
2023-04-02T06:43:55.903Z,100.00
2023-04-02T06:47:07.713Z,100.00
2023-04-02T06:50:01.244Z,100.00
2023-04-02T06:52:49.904Z,100.00
2023-04-02T06:55:54.174Z,100.00
2023-04-02T06:58:36.632Z,100.00
2023-04-02T07:01:25.647Z,100.00
2023-04-02T07:04:03.302Z,100.00
2023-04-02T07:06:49.226Z,100.00
2023-04-02T07:09:27.425Z,100.00
2023-04-02T07:12:14.773Z,100.00
2023-04-02T07:14:54.019Z,100.00
2023-04-02T07:17:32.287Z,100.00
2023-04-02T07:20:26.225Z,100.00
2023-04-02T07:23:04.894Z,100.00
2023-04-02T07:25:42.395Z,100.00
2023-04-02T07:28:22.526Z,99.23
2023-04-02T07:31:00.507Z,100.00
2023-04-02T07:33:38.148Z,99.84
2023-04-02T07:36:20.880Z,99.43
2023-04-02T07:38:58.699Z,99.54
2023-04-02T07:42:00.910Z,98.74
2023-04-02T07:44:38.335Z,99.04
2023-04-02T07:47:15.887Z,98.98
2023-04-02T07:49:54.590Z,99.56
2023-04-02T07:52:32.234Z,99.50
2023-04-02T07:55:12.776Z,99.38
2023-04-02T07:57:55.084Z,99.85
2023-04-02T08:00:33.120Z,98.50
2023-04-02T08:03:13.665Z,97.90
2023-04-02T08:05:58.840Z,98.11
2023-04-02T08:08:36.364Z,97.23
2023-04-02T08:11:13.977Z,96.02
2023-04-02T08:13:52.220Z,96.47
2023-04-02T08:16:49.671Z,96.23
2023-04-02T08:19:28.192Z,97.54
2023-04-02T08:22:05.638Z,96.46
2023-04-02T08:24:43.048Z,96.59
2023-04-02T08:27:20.805Z,96.78
2023-04-02T08:29:58.488Z,96.77
2023-04-02T08:32:36.310Z,96.66
2023-04-02T08:35:16.778Z,97.04
2023-04-02T08:37:57.150Z,97.38
2023-04-02T08:40:43.722Z,96.75
2023-04-02T08:43:40.860Z,96.43
2023-04-02T08:47:04.682Z,97.67
2023-04-02T08:49:53.009Z,97.34
2023-04-02T08:52:38.701Z,96.10
2023-04-02T08:55:47.926Z,96.01
2023-04-02T08:58:47.000Z,96.72
2023-04-02T09:01:52.300Z,96.40
2023-04-02T09:04:31.695Z,95.22
2023-04-02T09:07:15.602Z,95.15
2023-04-02T09:09:53.310Z,95.63
2023-04-02T09:12:32.747Z,95.75
2023-04-02T09:15:10.639Z,95.67
2023-04-02T09:17:54.077Z,96.08
2023-04-02T09:20:32.141Z,96.38
2023-04-02T09:23:23.986Z,95.84
2023-04-02T09:26:30.713Z,96.66
2023-04-02T09:29:08.048Z,97.03
2023-04-02T09:32:13.138Z,96.29
2023-04-02T09:34:51.029Z,94.86
2023-04-02T09:37:29.411Z,94.33
2023-04-02T09:40:32.140Z,95.37
2023-04-02T09:43:17.452Z,94.60
2023-04-02T09:46:06.616Z,94.54
2023-04-02T09:48:58.106Z,94.64
2023-04-02T09:51:36.634Z,94.78
2023-04-02T09:54:16.902Z,94.07
2023-04-02T09:57:04.928Z,94.12
2023-04-02T09:59:42.530Z,93.36
2023-04-02T10:02:29.927Z,93.51
2023-04-02T10:05:30.116Z,93.36
2023-04-02T10:08:29.401Z,93.36
2023-04-02T10:11:21.661Z,93.33
2023-04-02T10:14:17.881Z,92.26
2023-04-02T10:17:24.544Z,91.41
2023-04-02T10:20:34.035Z,92.52
2023-04-02T10:23:18.973Z,92.42
2023-04-02T10:26:11.624Z,92.25
2023-04-02T10:29:27.383Z,91.77
2023-04-02T10:32:14.231Z,93.65
2023-04-02T10:35:21.427Z,93.21
2023-04-02T10:38:28.619Z,91.17
2023-04-02T10:41:33.857Z,91.51
2023-04-02T10:44:32.746Z,90.58
2023-04-02T10:47:42.416Z,90.14
2023-04-02T10:50:55.153Z,90.72
2023-04-02T10:54:13.559Z,90.06
2023-04-02T10:56:53.379Z,90.09
2023-04-02T11:00:15.780Z,90.04
2023-04-02T11:03:08.063Z,90.02
2023-04-02T11:05:53.416Z,88.84
2023-04-02T11:08:44.165Z,88.58
2023-04-02T11:11:31.582Z,89.28
2023-04-02T11:14:33.730Z,89.15
2023-04-02T11:17:16.555Z,88.89
2023-04-02T11:19:54.170Z,88.88
2023-04-02T11:22:31.904Z,86.89
2023-04-02T11:25:22.960Z,86.81
2023-04-02T11:28:14.561Z,85.93
2023-04-02T11:30:52.389Z,86.76
2023-04-02T11:33:39.958Z,85.96
2023-04-02T11:36:50.945Z,86.64
2023-04-02T11:39:54.044Z,86.82
2023-04-02T11:42:36.685Z,87.16
2023-04-02T11:45:20.934Z,86.88
2023-04-02T11:48:01.596Z,86.90
2023-04-02T11:50:45.691Z,87.25
2023-04-02T11:53:37.840Z,88.09
2023-04-02T11:56:39.391Z,87.20
2023-04-02T11:59:58.700Z,86.01
2023-04-02T12:03:25.644Z,86.00
2023-04-02T12:06:26.898Z,86.13
2023-04-02T12:09:27.242Z,85.22
2023-04-02T12:12:39.642Z,84.01
2023-04-02T12:15:26.401Z,84.30
2023-04-02T12:18:17.792Z,85.11
2023-04-02T12:20:57.453Z,84.45
2023-04-02T12:23:37.701Z,83.87
2023-04-02T12:26:37.491Z,83.19
2023-04-02T12:29:28.922Z,83.34
2023-04-02T12:32:29.628Z,83.89
2023-04-02T12:35:34.661Z,83.30
2023-04-02T12:38:21.424Z,83.11
2023-04-02T12:41:18.119Z,81.74
2023-04-02T12:44:04.926Z,80.48
2023-04-02T12:46:44.863Z,78.46
2023-04-02T12:49:42.060Z,76.88
2023-04-02T12:52:24.629Z,76.96
2023-04-02T12:55:05.087Z,78.39
2023-04-02T12:57:45.909Z,77.25
2023-04-02T13:00:24.525Z,75.79
2023-04-02T13:03:05.283Z,77.14
2023-04-02T13:05:53.390Z,76.75
2023-04-02T13:08:42.862Z,76.19
2023-04-02T13:11:22.606Z,72.81
2023-04-02T13:14:03.664Z,72.50
2023-04-02T13:16:42.131Z,73.80
2023-04-02T13:19:31.909Z,72.54
2023-04-02T13:22:31.579Z,73.40
2023-04-02T13:25:09.170Z,73.02
2023-04-02T13:27:46.774Z,70.22
2023-04-02T13:30:27.955Z,69.17
2023-04-02T13:33:05.556Z,71.21
2023-04-02T13:35:44.362Z,70.24
2023-04-02T13:38:22.323Z,69.60
2023-04-02T13:41:01.049Z,68.79
2023-04-02T13:43:38.515Z,69.36
2023-04-02T13:46:26.392Z,68.91
2023-04-02T13:49:03.977Z,69.07
2023-04-02T13:51:51.928Z,69.03
2023-04-02T13:54:48.853Z,67.19
2023-04-02T13:57:26.323Z,68.69
2023-04-02T14:00:05.803Z,67.73
2023-04-02T14:02:51.788Z,66.32
2023-04-02T14:05:43.158Z,65.97
2023-04-02T14:08:33.358Z,66.73
2023-04-02T14:12:01.232Z,65.99
2023-04-02T14:15:12.983Z,65.61
2023-04-02T14:18:16.658Z,65.76
2023-04-02T14:21:18.502Z,64.66
2023-04-02T14:24:11.790Z,65.10
2023-04-02T14:27:13.026Z,65.66
2023-04-02T14:30:04.769Z,64.45
2023-04-02T14:33:21.223Z,64.88
2023-04-02T14:36:41.794Z,65.40
2023-04-02T14:39:58.202Z,63.06
2023-04-02T14:43:01.989Z,62.48
2023-04-02T14:46:01.739Z,63.50
2023-04-02T14:48:57.021Z,62.19
2023-04-02T14:51:43.424Z,63.94
2023-04-02T14:54:40.275Z,62.10
2023-04-02T14:57:48.904Z,61.74
2023-04-02T15:01:07.913Z,61.29
2023-04-02T15:03:56.189Z,63.56
2023-04-02T15:06:52.722Z,62.07
2023-04-02T15:09:49.259Z,62.29
2023-04-02T15:12:39.730Z,62.47
2023-04-02T15:15:36.940Z,60.78
2023-04-02T15:18:18.009Z,61.54
2023-04-02T15:21:31.242Z,61.69
2023-04-02T15:24:37.768Z,60.33
2023-04-02T15:28:20.779Z,60.94
2023-04-02T15:31:07.327Z,61.73
2023-04-02T15:34:02.969Z,62.16
2023-04-02T15:36:55.212Z,61.19
2023-04-02T15:39:48.373Z,58.58
2023-04-02T15:42:36.736Z,60.83
2023-04-02T15:45:42.404Z,59.25
2023-04-02T15:48:25.861Z,56.96
2023-04-02T15:51:37.473Z,58.22
2023-04-02T15:54:42.094Z,58.50
2023-04-02T15:58:05.878Z,58.49
2023-04-02T16:01:25.391Z,59.73
2023-04-02T16:04:38.746Z,60.02
2023-04-02T16:07:29.232Z,59.13
2023-04-02T16:10:38.008Z,60.08
2023-04-02T16:13:37.493Z,58.42
2023-04-02T16:16:26.806Z,59.60
2023-04-02T16:19:34.599Z,60.87
2023-04-02T16:22:39.172Z,62.50
2023-04-02T16:25:23.075Z,62.59
2023-04-02T16:28:43.140Z,61.15
2023-04-02T16:31:46.113Z,59.94
2023-04-02T16:34:41.994Z,59.12
2023-04-02T16:37:42.672Z,59.96
2023-04-02T16:40:54.272Z,60.92
2023-04-02T16:44:15.573Z,59.45
2023-04-02T16:47:27.765Z,60.39
2023-04-02T16:50:37.394Z,59.43
2023-04-02T16:54:00.650Z,60.20
2023-04-02T16:57:07.613Z,60.95
2023-04-02T17:00:01.583Z,60.01
2023-04-02T17:03:04.959Z,60.34
2023-04-02T17:06:13.129Z,62.89
2023-04-02T17:09:05.646Z,63.26
2023-04-02T17:11:58.987Z,62.77
2023-04-02T17:14:53.089Z,63.07
2023-04-02T17:17:30.716Z,63.78
2023-04-02T17:20:23.910Z,63.69
2023-04-02T17:23:05.299Z,64.87
2023-04-02T17:25:53.982Z,65.56
2023-04-02T17:28:37.138Z,65.74
2023-04-02T17:31:32.837Z,64.70
2023-04-02T17:34:25.578Z,64.89
2023-04-02T17:37:24.011Z,65.80
2023-04-02T17:40:31.736Z,66.53
2023-04-02T17:44:00.038Z,66.44
2023-04-02T17:47:08.206Z,66.21
2023-04-02T17:50:30.433Z,66.67
2023-04-02T17:53:27.399Z,67.16
2023-04-02T17:56:38.394Z,68.18
2023-04-02T17:59:44.800Z,68.21
2023-04-02T18:02:40.448Z,69.38
2023-04-02T18:05:45.660Z,69.10
2023-04-02T18:09:01.500Z,69.65
2023-04-02T18:11:56.473Z,70.35
2023-04-02T18:15:11.307Z,70.36
2023-04-02T18:18:10.916Z,70.46
2023-04-02T18:21:34.757Z,70.34
2023-04-02T18:25:10.634Z,70.55
2023-04-02T18:28:32.373Z,71.03
2023-04-02T18:32:03.329Z,71.08
2023-04-02T18:35:20.397Z,71.13
2023-04-02T18:38:23.021Z,71.69
2023-04-02T18:41:49.118Z,71.92
2023-04-02T18:44:45.768Z,71.88
2023-04-02T18:48:02.168Z,72.22
2023-04-02T18:50:40.870Z,72.83
2023-04-02T18:53:24.301Z,72.79
2023-04-02T18:56:13.906Z,73.01
2023-04-02T18:59:46.958Z,73.19
2023-04-02T19:02:42.865Z,73.41
2023-04-02T19:05:35.761Z,73.50
2023-04-02T19:08:36.377Z,74.06
2023-04-02T19:11:18.784Z,74.04
2023-04-02T19:14:12.305Z,74.42
2023-04-02T19:17:05.215Z,74.91
2023-04-02T19:20:04.024Z,74.96
2023-04-02T19:23:22.257Z,75.28
2023-04-02T19:26:18.398Z,76.01
2023-04-02T19:29:43.309Z,75.64
2023-04-02T19:32:42.736Z,75.91
2023-04-02T19:35:47.444Z,76.26
2023-04-02T19:38:53.049Z,76.56
2023-04-02T19:41:52.028Z,77.10
2023-04-02T19:44:29.685Z,76.84
2023-04-02T19:47:10.432Z,77.75
2023-04-02T19:49:48.390Z,77.58
2023-04-02T19:52:25.918Z,78.19
2023-04-02T19:55:03.709Z,78.23
2023-04-02T19:57:41.288Z,77.99
2023-04-02T20:00:19.507Z,78.46
2023-04-02T20:02:57.152Z,79.14
2023-04-02T20:05:37.576Z,78.56
2023-04-02T20:08:38.464Z,79.00
2023-04-02T20:11:16.386Z,79.03
2023-04-02T20:13:56.757Z,80.06
2023-04-02T20:16:37.081Z,79.51
2023-04-02T20:19:17.033Z,79.64
2023-04-02T20:22:01.171Z,80.05
2023-04-02T20:24:38.779Z,80.11
2023-04-02T20:27:16.535Z,80.46
2023-04-02T20:29:53.995Z,80.65
2023-04-02T20:32:32.178Z,81.25
2023-04-02T20:35:09.981Z,80.59
2023-04-02T20:37:47.966Z,81.09
2023-04-02T20:40:25.924Z,81.41
2023-04-02T20:43:03.583Z,81.71
2023-04-02T20:45:41.155Z,81.78
2023-04-02T20:48:22.255Z,81.18
2023-04-02T20:51:02.832Z,81.85
2023-04-02T20:53:42.240Z,81.60
2023-04-02T20:56:28.129Z,82.02
2023-04-02T20:59:06.065Z,82.14
2023-04-02T21:01:54.036Z,82.43
2023-04-02T21:04:31.615Z,82.49
2023-04-02T21:07:12.115Z,82.92
2023-04-02T21:09:51.741Z,83.00
2023-04-02T21:12:29.369Z,83.21
2023-04-02T21:15:08.012Z,83.00
2023-04-02T21:17:47.778Z,83.40
2023-04-02T21:20:27.626Z,83.98
2023-04-02T21:23:05.505Z,83.72
2023-04-02T21:25:42.984Z,83.89
2023-04-02T21:28:20.470Z,83.92
2023-04-02T21:31:11.342Z,84.37
2023-04-02T21:33:53.099Z,84.67
2023-04-02T21:36:36.910Z,84.71
2023-04-02T21:39:22.265Z,84.97
2023-04-02T21:42:00.112Z,85.12
2023-04-02T21:44:37.677Z,85.09
2023-04-02T21:47:17.628Z,85.40
2023-04-02T21:49:55.851Z,85.92
2023-04-02T21:52:33.440Z,85.56
2023-04-02T21:55:10.916Z,85.73
2023-04-02T21:57:48.581Z,85.80
2023-04-02T22:00:26.592Z,86.26
2023-04-02T22:03:04.458Z,86.35
2023-04-02T22:05:42.105Z,86.29
2023-04-02T22:08:22.925Z,86.58
2023-04-02T22:11:12.886Z,86.66
2023-04-02T22:13:52.493Z,86.62
2023-04-02T22:16:38.901Z,86.91
2023-04-02T22:19:19.745Z,86.87
2023-04-02T22:21:57.372Z,87.01
2023-04-02T22:24:35.047Z,87.55
2023-04-02T22:27:14.340Z,87.76
2023-04-02T22:29:51.810Z,87.79
2023-04-02T22:32:32.325Z,88.05
2023-04-02T22:35:10.041Z,88.39
2023-04-02T22:37:47.492Z,88.35
2023-04-02T22:40:25.450Z,88.77
2023-04-02T22:43:03.141Z,88.83
2023-04-02T22:45:44.962Z,89.29
2023-04-02T22:48:22.425Z,88.52
2023-04-02T22:51:00.605Z,88.85
2023-04-02T22:53:39.116Z,89.02
2023-04-02T22:56:27.642Z,89.37
2023-04-02T22:59:05.750Z,89.61
2023-04-02T23:01:43.573Z,89.52
2023-04-02T23:04:21.144Z,89.62
2023-04-02T23:06:58.656Z,89.76
2023-04-02T23:09:36.425Z,89.89
2023-04-02T23:12:14.166Z,89.86
2023-04-02T23:14:51.845Z,90.23
2023-04-02T23:17:29.741Z,90.10
2023-04-02T23:20:08.904Z,90.07
2023-04-02T23:22:46.367Z,90.09
2023-04-02T23:25:23.788Z,89.80
2023-04-02T23:28:01.545Z,90.38
2023-04-02T23:30:41.125Z,90.37
2023-04-02T23:33:18.671Z,90.22
2023-04-02T23:35:56.206Z,90.36
2023-04-02T23:38:33.791Z,90.59
2023-04-02T23:41:16.764Z,90.65
2023-04-02T23:43:56.158Z,90.76
2023-04-02T23:46:34.788Z,90.95
2023-04-02T23:49:13.079Z,91.05
2023-04-02T23:51:51.159Z,91.16
2023-04-02T23:54:28.647Z,90.65
2023-04-02T23:57:06.206Z,90.81
2023-04-02T23:59:43.855Z,91.33
